Time;durP1;ratioP1;P1;durP2;ratioP2;P2;SDS_P1;SDS_P2;PMS_P1;PMS_P2;Temp;Humidity;BMP_temperature;BMP_pressure;BME280_temperature;BME280_humidity;BME280_pressure;Samples;Min_cycle;Max_cycle;Signal;HPM_P1;HPM_P2
2020/12/08 00:00:49;;;;;;;18.40;12.47;;;1.90;99.90;;;;;;4974768;28;20492;-86
2020/12/08 00:03:15;;;;;;;18.33;12.47;;;1.70;99.90;;;;;;4974801;28;20445;-86
2020/12/08 00:05:42;;;;;;;24.03;14.17;;;2.50;99.90;;;;;;4973528;28;20457;-85
2020/12/08 00:08:08;;;;;;;17.77;12.03;;;1.90;99.90;;;;;;4974746;28;20957;-86
2020/12/08 00:10:35;;;;;;;21.43;12.17;;;1.90;99.90;;;;;;4973978;28;20466;-86
2020/12/08 00:13:02;;;;;;;20.07;11.70;;;2.00;99.90;;;;;;4974619;28;20454;-86
2020/12/08 00:15:28;;;;;;;21.73;12.10;;;;;;;;;;4974709;28;20449;-86
2020/12/08 00:17:54;;;;;;;20.40;10.97;;;1.80;99.90;;;;;;4974651;28;20464;-86
2020/12/08 00:20:21;;;;;;;20.97;13.50;;;1.90;99.90;;;;;;4963896;28;20508;-86
2020/12/08 00:22:48;;;;;;;18.33;11.47;;;1.90;99.90;;;;;;4971213;28;21004;-87
2020/12/08 00:25:14;;;;;;;21.33;13.03;;;1.90;99.90;;;;;;4974434;28;20459;-85
2020/12/08 00:27:41;;;;;;;16.80;11.60;;;1.90;99.90;;;;;;4973046;28;20454;-86
2020/12/08 00:30:09;;;;;;;17.60;11.67;;;2.10;99.90;;;;;;4974298;28;20452;-86
2020/12/08 00:32:38;;;;;;;20.83;12.40;;;2.00;99.90;;;;;;4974436;28;20452;-87
2020/12/08 00:35:04;;;;;;;17.10;11.90;;;1.90;99.90;;;;;;4972943;28;20448;-86
2020/12/08 00:37:31;;;;;;;20.33;11.87;;;1.90;99.90;;;;;;4972989;28;20453;-86
2020/12/08 00:39:57;;;;;;;19.10;12.67;;;1.80;99.90;;;;;;4974030;28;20493;-86
2020/12/08 00:42:23;;;;;;;18.50;12.73;;;1.90;99.90;;;;;;4974302;28;20964;-88
2020/12/08 00:44:50;;;;;;;18.97;12.70;;;;;;;;;;4974253;28;20939;-86
2020/12/08 00:47:17;;;;;;;22.10;13.50;;;2.10;99.90;;;;;;4974293;28;20453;-85
2020/12/08 00:49:43;;;;;;;22.13;13.57;;;1.90;99.90;;;;;;4973023;28;21231;-87
2020/12/08 00:52:10;;;;;;;20.70;12.33;;;1.80;99.90;;;;;;4974061;28;20442;-85
2020/12/08 00:54:36;;;;;;;20.43;12.70;;;1.80;99.90;;;;;;4973746;28;20976;-86
2020/12/08 00:57:03;;;;;;;21.03;13.90;;;1.90;99.90;;;;;;4973787;28;20520;-86
2020/12/08 00:59:29;;;;;;;18.30;12.37;;;1.90;99.90;;;;;;4974032;28;20509;-85
2020/12/08 01:02:00;;;;;;;17.97;11.97;;;2.60;99.90;;;;;;4973754;28;20462;-85
2020/12/08 01:04:27;;;;;;;20.63;13.23;;;2.00;99.90;;;;;;4973077;28;20447;-85
2020/12/08 01:06:54;;;;;;;21.90;13.53;;;2.00;99.90;;;;;;4973995;28;20465;-85
2020/12/08 01:09:20;;;;;;;21.37;13.47;;;2.20;99.90;;;;;;4974063;28;20543;-85
2020/12/08 01:11:47;;;;;;;19.23;12.63;;;2.10;99.90;;;;;;4974011;28;20446;-85
2020/12/08 01:14:14;;;;;;;23.27;12.63;;;2.00;99.90;;;;;;4973917;28;20813;-86
2020/12/08 01:16:40;;;;;;;19.80;13.50;;;2.30;99.90;;;;;;4972459;28;20462;-84
2020/12/08 01:19:07;;;;;;;20.17;13.73;;;1.90;99.90;;;;;;4960916;28;20462;-85
2020/12/08 01:21:34;;;;;;;19.43;12.50;;;2.00;99.90;;;;;;4972835;28;20458;-87
2020/12/08 01:24:01;;;;;;;20.60;13.37;;;2.00;99.90;;;;;;4962700;28;20487;-87
2020/12/08 01:26:27;;;;;;;22.53;13.73;;;2.00;99.90;;;;;;4958426;28;20455;-86
2020/12/08 01:28:54;;;;;;;23.80;14.10;;;2.00;99.90;;;;;;4958246;28;20979;-85
2020/12/08 01:31:20;;;;;;;20.67;12.90;;;1.60;99.90;;;;;;4958272;28;20463;-85
2020/12/08 01:33:46;;;;;;;20.00;13.77;;;2.20;99.90;;;;;;4955227;28;20450;-85
2020/12/08 01:36:17;;;;;;;19.97;12.83;;;2.60;99.90;;;;;;4971859;28;20460;-85
2020/12/08 01:38:45;;;;;;;19.20;12.00;;;2.20;99.90;;;;;;4975621;28;20453;-85
2020/12/08 01:41:11;;;;;;;23.10;14.00;;;;;;;;;;4977261;28;20498;-86
2020/12/08 01:43:47;;;;;;;22.13;14.03;;;2.00;99.90;;;;;;4977515;28;20460;-86
2020/12/08 01:46:16;;;;;;;19.57;12.27;;;2.20;99.90;;;;;;4977501;28;20449;-85
2020/12/08 01:48:43;;;;;;;22.33;13.30;;;1.40;99.90;;;;;;4975882;28;20456;-86
2020/12/08 01:51:10;;;;;;;24.87;14.07;;;2.00;99.90;;;;;;4976147;28;20950;-86
2020/12/08 01:53:36;;;;;;;22.57;14.20;;;1.80;99.90;;;;;;4977456;28;20456;-86
2020/12/08 01:56:04;;;;;;;22.50;13.53;;;1.80;99.90;;;;;;4977202;28;20454;-85
2020/12/08 01:58:30;;;;;;;24.50;13.97;;;3.30;99.90;;;;;;4977312;28;20453;-86
2020/12/08 02:00:56;;;;;;;24.50;14.37;;;1.70;99.90;;;;;;4976701;28;20595;-86
2020/12/08 02:03:23;;;;;;;22.27;14.30;;;1.90;99.90;;;;;;4976950;28;20458;-87
2020/12/08 02:05:51;;;;;;;24.20;15.70;;;1.90;99.90;;;;;;4975832;28;20457;-86
2020/12/08 02:08:27;;;;;;;22.77;13.10;;;2.10;99.90;;;;;;4976983;28;20452;-86
2020/12/08 02:10:53;;;;;;;22.43;13.97;;;1.90;99.90;;;;;;4977007;28;20464;-86
2020/12/08 02:13:20;;;;;;;21.27;14.30;;;1.90;99.90;;;;;;4976823;28;20977;-85
2020/12/08 02:15:47;;;;;;;22.83;14.47;;;2.10;99.90;;;;;;4976716;28;20450;-86
2020/12/08 02:18:13;;;;;;;21.47;13.23;;;1.90;99.90;;;;;;4976781;28;20464;-86
2020/12/08 02:20:40;;;;;;;22.60;14.80;;;1.80;99.90;;;;;;4975449;28;20489;-86
2020/12/08 02:23:06;;;;;;;21.30;13.37;;;1.80;99.90;;;;;;4976527;28;20485;-86
2020/12/08 02:25:33;;;;;;;20.60;13.53;;;1.70;99.90;;;;;;4976280;28;20942;-85
2020/12/08 02:27:59;;;;;;;21.07;12.90;;;1.70;99.90;;;;;;4976638;28;20955;-85
2020/12/08 02:30:25;;;;;;;21.00;13.47;;;1.60;99.90;;;;;;4976511;28;20445;-86
2020/12/08 02:32:52;;;;;;;23.37;14.20;;;1.50;99.90;;;;;;4975158;28;20970;-85
2020/12/08 02:35:18;;;;;;;21.20;13.63;;;1.60;99.90;;;;;;4974606;28;20941;-85
2020/12/08 02:37:46;;;;;;;21.73;13.60;;;1.60;99.90;;;;;;4976502;28;20473;-84
2020/12/08 02:40:12;;;;;;;23.03;14.43;;;1.60;99.90;;;;;;4976315;28;20506;-85
2020/12/08 02:42:38;;;;;;;22.73;13.53;;;1.60;99.90;;;;;;4976310;28;20465;-85
2020/12/08 02:45:05;;;;;;;21.20;14.10;;;1.60;99.90;;;;;;4975902;28;20461;-85
2020/12/08 02:47:32;;;;;;;23.47;13.10;;;1.60;99.90;;;;;;4976193;28;20452;-85
2020/12/08 02:49:59;;;;;;;23.23;13.73;;;;;;;;;;4973559;28;20457;-85
2020/12/08 02:52:25;;;;;;;21.10;13.53;;;1.60;99.90;;;;;;4968790;28;20449;-84
2020/12/08 02:54:52;;;;;;;20.83;13.13;;;1.60;99.90;;;;;;4976044;28;20442;-87
2020/12/08 02:57:18;;;;;;;23.57;13.43;;;1.60;99.90;;;;;;4970479;28;20459;-85
2020/12/08 02:59:44;;;;;;;22.00;14.50;;;1.60;99.90;;;;;;4958045;28;20514;-86
2020/12/08 03:02:11;;;;;;;19.90;13.13;;;1.60;99.90;;;;;;4976004;28;20450;-86
2020/12/08 03:04:37;;;;;;;23.73;14.53;;;1.50;99.90;;;;;;4974903;28;20461;-86
2020/12/08 03:07:03;;;;;;;23.60;14.20;;;1.50;99.90;;;;;;4975899;28;20457;-87
2020/12/08 03:09:29;;;;;;;24.43;14.87;;;1.50;99.90;;;;;;4975523;28;20477;-86
2020/12/08 03:11:57;;;;;;;21.83;13.67;;;2.20;99.90;;;;;;4970411;28;20461;-87
2020/12/08 03:14:23;;;;;;;22.93;14.13;;;1.50;99.90;;;;;;4975725;28;20961;-88
2020/12/08 03:16:50;;;;;;;18.63;12.63;;;;;;;;;;4975440;28;20456;-86
2020/12/08 03:19:16;;;;;;;18.10;12.00;;;1.40;99.90;;;;;;4975588;28;20484;-86
2020/12/08 03:21:43;;;;;;;22.90;15.00;;;1.40;99.90;;;;;;4974525;28;20465;-86
2020/12/08 03:24:09;;;;;;;24.60;12.73;;;1.60;99.90;;;;;;4975467;28;20837;-86
2020/12/08 03:26:35;;;;;;;22.43;14.00;;;1.50;99.90;;;;;;4975476;28;20462;-86
2020/12/08 03:29:02;;;;;;;21.60;14.40;;;1.50;99.90;;;;;;4975463;28;20460;-86
2020/12/08 03:31:29;;;;;;;20.70;12.63;;;1.30;99.90;;;;;;4975497;28;20460;-86
2020/12/08 03:33:55;;;;;;;25.43;14.23;;;1.40;99.90;;;;;;4975259;28;20467;-86
2020/12/08 03:36:22;;;;;;;20.20;12.90;;;1.40;99.90;;;;;;4974277;28;20938;-87
2020/12/08 03:38:49;;;;;;;27.63;15.30;;;1.40;99.90;;;;;;4974983;28;20478;-86
2020/12/08 03:41:19;;;;;;;22.07;13.83;;;1.50;99.90;;;;;;4975135;28;21039;-87
2020/12/08 03:43:45;;;;;;;21.23;13.17;;;1.40;99.90;;;;;;4975265;28;20939;-86
2020/12/08 03:46:18;;;;;;;23.87;13.97;;;1.30;99.90;;;;;;4972338;28;20838;-87
2020/12/08 03:48:44;;;;;;;21.83;13.43;;;1.30;99.90;;;;;;4966422;28;20460;-86
2020/12/08 03:51:13;;;;;;;30.07;14.63;;;1.30;99.90;;;;;;4954597;29;20450;-86
2020/12/08 03:53:40;;;;;;;22.37;13.73;;;1.30;99.90;;;;;;4968204;28;20453;-86
2020/12/08 03:56:10;;;;;;;23.37;13.80;;;1.20;99.90;;;;;;4974856;28;20992;-85
2020/12/08 03:58:36;;;;;;;21.67;12.90;;;1.20;99.90;;;;;;4971390;28;20491;-86
2020/12/08 04:01:03;;;;;;;21.83;13.50;;;1.20;99.90;;;;;;4973372;28;20506;-86
2020/12/08 04:03:30;;;;;;;20.60;11.73;;;1.10;99.90;;;;;;4974892;28;20829;-87
2020/12/08 04:06:00;;;;;;;24.77;14.20;;;1.10;99.90;;;;;;4973397;28;20446;-86
2020/12/08 04:08:27;;;;;;;26.20;14.90;;;1.00;99.90;;;;;;4967985;28;20507;-86
2020/12/08 04:10:53;;;;;;;28.57;13.67;;;;;;;;;;4974937;28;20449;-87
2020/12/08 04:13:19;;;;;;;23.63;14.77;;;1.00;99.90;;;;;;4974691;28;20454;-85
2020/12/08 04:15:46;;;;;;;26.17;15.70;;;1.00;99.90;;;;;;4974646;28;20970;-86
2020/12/08 04:18:12;;;;;;;21.00;13.00;;;0.90;99.90;;;;;;4973140;28;20453;-86
2020/12/08 04:20:41;;;;;;;24.40;14.07;;;0.90;99.90;;;;;;4973328;28;20499;-86
2020/12/08 04:23:10;;;;;;;24.10;13.10;;;0.80;99.90;;;;;;4974143;28;20493;-86
2020/12/08 04:25:37;;;;;;;24.23;13.67;;;;;;;;;;4974514;28;20452;-86
2020/12/08 04:28:04;;;;;;;23.97;14.30;;;0.70;99.90;;;;;;4974889;28;20924;-85
2020/12/08 04:30:31;;;;;;;23.30;14.03;;;;;;;;;;4974448;28;20450;-86
2020/12/08 04:32:57;;;;;;;21.40;13.10;;;0.70;99.90;;;;;;4974472;28;20841;-85
2020/12/08 04:35:23;;;;;;;22.60;13.80;;;0.60;99.90;;;;;;4973215;28;20446;-85
2020/12/08 04:37:50;;;;;;;21.30;11.40;;;0.70;99.90;;;;;;4972912;28;20461;-84
2020/12/08 04:40:16;;;;;;;25.77;15.30;;;0.80;99.90;;;;;;4974225;28;20505;-85
2020/12/08 04:42:46;;;;;;;24.83;14.03;;;0.70;99.90;;;;;;4974473;28;20442;-86
2020/12/08 04:45:13;;;;;;;20.70;12.60;;;0.70;99.90;;;;;;4974340;28;20816;-85
2020/12/08 04:47:43;;;;;;;19.57;12.00;;;0.70;99.90;;;;;;4974309;28;20457;-86
2020/12/08 04:50:09;;;;;;;24.00;14.47;;;0.70;99.90;;;;;;4973119;28;20457;-84
2020/12/08 04:52:36;;;;;;;23.30;13.17;;;0.70;99.90;;;;;;4974175;28;20449;-85
2020/12/08 04:55:04;;;;;;;21.97;13.57;;;0.70;99.90;;;;;;4973510;28;20445;-85
2020/12/08 04:57:30;;;;;;;23.83;13.97;;;0.70;99.90;;;;;;4973814;28;20447;-85
2020/12/08 05:00:07;;;;;;;25.60;15.30;;;0.70;99.90;;;;;;4974106;28;20851;-87
2020/12/08 05:02:33;;;;;;;20.73;13.53;;;0.70;99.90;;;;;;4972579;28;20459;-85
2020/12/08 05:05:02;;;;;;;23.53;14.80;;;0.70;99.90;;;;;;4972568;28;20456;-86
2020/12/08 05:07:29;;;;;;;25.27;13.97;;;0.70;99.90;;;;;;4974196;28;20457;-86
2020/12/08 05:09:55;;;;;;;24.30;14.37;;;0.90;99.90;;;;;;4973872;28;20451;-86
2020/12/08 05:12:24;;;;;;;25.00;15.07;;;0.90;99.90;;;;;;4974027;28;20450;-85
2020/12/08 05:14:51;;;;;;;27.07;15.17;;;0.90;99.90;;;;;;4974019;28;20454;-86
2020/12/08 05:17:22;;;;;;;24.60;15.30;;;0.90;99.90;;;;;;4973801;28;20465;-85
2020/12/08 05:19:49;;;;;;;27.77;14.30;;;0.90;99.90;;;;;;4972736;28;20494;-87
2020/12/08 05:22:15;;;;;;;26.17;15.23;;;0.80;99.90;;;;;;4973755;28;20461;-86
2020/12/08 05:24:41;;;;;;;25.07;14.20;;;0.90;99.90;;;;;;4973878;28;20449;-85
2020/12/08 05:27:08;;;;;;;22.47;13.90;;;0.80;99.90;;;;;;4973494;28;20447;-86
2020/12/08 05:29:36;;;;;;;25.43;14.40;;;0.50;99.90;;;;;;4973253;28;20456;-87
2020/12/08 05:32:29;;;;;;;23.87;15.00;;;0.70;99.90;;;;;;4973839;28;20454;-85
2020/12/08 05:34:56;;;;;;;27.87;16.73;;;0.90;99.90;;;;;;4972735;28;20465;-85
2020/12/08 05:37:22;;;;;;;26.63;15.87;;;0.90;99.90;;;;;;4973838;28;20522;-85
2020/12/08 05:39:49;;;;;;;28.53;15.17;;;0.90;99.90;;;;;;4973553;28;20496;-85
2020/12/08 05:42:18;;;;;;;25.97;16.00;;;0.80;99.90;;;;;;4973741;28;20464;-85
2020/12/08 05:44:48;;;;;;;32.40;16.53;;;0.90;99.90;;;;;;4973768;28;20808;-85
2020/12/08 05:47:18;;;;;;;27.03;15.40;;;0.90;99.90;;;;;;4973721;28;20484;-85
2020/12/08 05:49:44;;;;;;;27.03;14.83;;;0.90;99.90;;;;;;4970329;28;20481;-86
2020/12/08 05:52:11;;;;;;;28.13;16.00;;;0.90;99.90;;;;;;4957272;28;20443;-85
2020/12/08 05:54:37;;;;;;;30.40;16.47;;;1.00;99.90;;;;;;4957475;28;20457;-85
2020/12/08 05:57:14;;;;;;;30.00;18.23;;;1.00;99.90;;;;;;4973541;28;20462;-87
2020/12/08 05:59:41;;;;;;;26.13;15.23;;;1.00;99.90;;;;;;4973123;28;20450;-85
2020/12/08 06:02:08;;;;;;;27.73;16.70;;;1.00;99.90;;;;;;4973382;28;20785;-85
2020/12/08 06:04:42;;;;;;;29.67;16.67;;;1.10;99.90;;;;;;4972207;28;20449;-85
2020/12/08 06:07:09;;;;;;;32.60;17.40;;;1.10;99.90;;;;;;4967294;28;20476;-86
2020/12/08 06:09:36;;;;;;;29.40;17.20;;;1.10;99.90;;;;;;4955596;28;20464;-85
2020/12/08 06:12:14;;;;;;;27.80;17.67;;;1.10;99.90;;;;;;4957200;28;20457;-85
2020/12/08 06:14:40;;;;;;;29.20;15.93;;;1.10;99.90;;;;;;4957509;28;20453;-86
2020/12/08 06:17:09;;;;;;;29.53;18.40;;;1.20;99.90;;;;;;4957443;28;20450;-87
2020/12/08 06:19:36;;;;;;;27.57;15.23;;;1.30;99.90;;;;;;4956287;28;20451;-84
2020/12/08 06:22:11;;;;;;;29.13;16.40;;;1.30;99.90;;;;;;4955726;29;20947;-85
2020/12/08 06:24:51;;;;;;;31.63;17.20;;;1.00;99.90;;;;;;4957333;28;20517;-85
2020/12/08 06:27:19;;;;;;;29.97;17.13;;;1.10;99.90;;;;;;4958476;28;20461;-85
2020/12/08 06:29:52;;;;;;;30.43;17.50;;;1.00;99.90;;;;;;4958477;28;20504;-85
2020/12/08 06:32:26;;;;;;;30.43;16.20;;;1.00;99.90;;;;;;4957162;28;20541;-85
2020/12/08 06:35:07;;;;;;;29.23;15.80;;;1.10;99.90;;;;;;4956071;28;20451;-86
2020/12/08 06:37:34;;;;;;;29.30;17.17;;;0.90;99.90;;;;;;4957008;28;20457;-87
2020/12/08 06:40:08;;;;;;;28.00;16.40;;;1.00;99.90;;;;;;4957063;28;20871;-86
2020/12/08 06:42:34;;;;;;;30.30;17.10;;;0.90;99.90;;;;;;4957069;29;20448;-84
2020/12/08 06:45:09;;;;;;;31.73;17.77;;;0.80;99.90;;;;;;4957452;28;20453;-89
2020/12/08 06:47:36;;;;;;;28.70;15.90;;;0.90;99.90;;;;;;4957318;28;20449;-89
2020/12/08 06:50:04;;;;;;;28.97;15.97;;;1.00;99.90;;;;;;4956448;28;20457;-88
2020/12/08 06:52:31;;;;;;;32.07;17.30;;;1.40;99.90;;;;;;4957403;28;20940;-89
2020/12/08 06:54:58;;;;;;;31.23;16.87;;;0.70;99.90;;;;;;4956705;29;20452;-86
2020/12/08 06:57:24;;;;;;;30.43;17.10;;;0.70;99.90;;;;;;4956879;28;20454;-87
2020/12/08 07:00:00;;;;;;;34.33;17.30;;;0.60;99.90;;;;;;4956915;28;20472;-88
2020/12/08 07:02:28;;;;;;;29.40;16.83;;;0.70;99.90;;;;;;4956951;28;20459;-87
2020/12/08 07:04:56;;;;;;;27.37;16.03;;;0.60;99.90;;;;;;4955917;28;20637;-89
2020/12/08 07:07:23;;;;;;;36.87;19.77;;;0.70;99.90;;;;;;4957280;28;20447;-92
2020/12/08 07:09:50;;;;;;;30.50;17.03;;;0.70;99.90;;;;;;4957601;29;20450;-91
2020/12/08 07:12:19;;;;;;;32.77;19.20;;;0.60;99.90;;;;;;4958152;28;20514;-92
2020/12/08 07:14:45;;;;;;;29.60;17.10;;;0.60;99.90;;;;;;4957853;29;20462;-90
2020/12/08 07:17:12;;;;;;;33.23;18.47;;;0.50;99.90;;;;;;4964406;28;20441;-91
2020/12/08 07:19:39;;;;;;;31.70;18.60;;;0.40;99.90;;;;;;4975204;28;20452;-92
2020/12/08 07:22:08;;;;;;;33.97;17.67;;;0.50;99.90;;;;;;4976834;28;20503;-92
2020/12/08 07:24:42;;;;;;;30.33;16.57;;;0.50;99.90;;;;;;4975898;28;20453;-90
2020/12/08 07:27:11;;;;;;;36.07;20.03;;;0.50;99.90;;;;;;4977386;28;20452;-93
2020/12/08 07:29:39;;;;;;;32.00;17.53;;;0.50;99.90;;;;;;4976910;28;20431;-92
2020/12/08 07:32:06;;;;;;;32.60;17.90;;;;;;;;;;4976201;28;20455;-91
2020/12/08 07:34:32;;;;;;;32.37;17.30;;;0.50;99.90;;;;;;4972589;28;20449;-90
2020/12/08 07:36:59;;;;;;;33.90;17.90;;;;;;;;;;4976643;28;20821;-89
2020/12/08 07:39:29;;;;;;;31.80;17.00;;;0.60;99.90;;;;;;4976373;28;20447;-91
2020/12/08 07:42:02;;;;;;;36.30;18.70;;;0.50;99.90;;;;;;4976055;28;20502;-91
2020/12/08 07:44:29;;;;;;;32.23;17.93;;;0.50;99.90;;;;;;4976280;28;20450;-91
2020/12/08 07:46:55;;;;;;;35.83;18.87;;;0.60;99.90;;;;;;4975769;28;20460;-89
2020/12/08 07:49:21;;;;;;;33.10;17.97;;;0.60;99.90;;;;;;4975429;28;20509;-87
2020/12/08 07:51:49;;;;;;;35.13;18.43;;;0.60;99.90;;;;;;4968373;28;20455;-87
2020/12/08 07:54:16;;;;;;;29.50;18.50;;;;;;;;;;4967931;28;20481;-87
2020/12/08 07:56:43;;;;;;;30.40;17.67;;;0.50;99.90;;;;;;4963838;28;20440;-90
2020/12/08 07:59:10;;;;;;;32.87;18.47;;;0.50;99.90;;;;;;4973294;28;20481;-88
2020/12/08 08:01:40;;;;;;;32.07;17.60;;;0.50;99.90;;;;;;4967231;28;20496;-87
2020/12/08 08:04:07;;;;;;;33.40;18.67;;;0.60;99.90;;;;;;4965876;28;20536;-86
2020/12/08 08:06:33;;;;;;;38.00;23.27;;;0.70;99.90;;;;;;4962209;28;20468;-87
2020/12/08 08:08:59;;;;;;;35.80;19.40;;;0.70;99.90;;;;;;4971677;28;20459;-83
2020/12/08 08:11:25;;;;;;;37.70;21.23;;;0.70;99.90;;;;;;4974440;28;20446;-85
2020/12/08 08:13:52;;;;;;;32.87;19.47;;;0.80;99.90;;;;;;4974571;28;20460;-86
2020/12/08 08:16:19;;;;;;;30.73;17.70;;;1.00;99.90;;;;;;4974920;28;20446;-87
2020/12/08 08:18:45;;;;;;;28.37;19.17;;;1.60;99.90;;;;;;4975184;28;20453;-89
2020/12/08 08:21:12;;;;;;;32.83;20.57;;;2.00;99.90;;;;;;4973555;28;20497;-87
2020/12/08 08:23:39;;;;;;;30.70;17.60;;;2.60;99.90;;;;;;4974527;28;21059;-89
2020/12/08 08:26:06;;;;;;;30.30;19.43;;;3.10;99.90;;;;;;4972372;28;20949;-88
2020/12/08 08:28:32;;;;;;;26.60;17.73;;;3.40;99.90;;;;;;4974661;28;20465;-87
2020/12/08 08:31:00;;;;;;;29.60;17.40;;;3.70;99.90;;;;;;4974556;28;20453;-87
2020/12/08 08:33:26;;;;;;;30.27;17.23;;;4.10;99.90;;;;;;4973631;28;20482;-88
2020/12/08 08:35:53;;;;;;;24.33;16.27;;;;;;;;;;4974889;28;20457;-91
2020/12/08 08:38:21;;;;;;;29.60;18.73;;;;;;;;;;4977613;28;20481;-92
2020/12/08 08:40:48;;;;;;;25.47;17.60;;;4.60;99.90;;;;;;4971240;28;20510;-88
2020/12/08 08:43:14;;;;;;;31.17;17.20;;;;;;;;;;4962837;28;20423;-87
2020/12/08 08:45:40;;;;;;;28.17;17.20;;;4.70;99.90;;;;;;4979913;28;20450;-86
2020/12/08 08:48:08;;;;;;;30.03;19.30;;;4.70;99.90;;;;;;4969262;28;20469;-91
2020/12/08 08:50:34;;;;;;;26.07;16.60;;;;;;;;;;4955128;28;20455;-87
2020/12/08 08:53:01;;;;;;;26.10;16.63;;;5.90;99.90;;;;;;4955429;29;20959;-89
2020/12/08 08:55:28;;;;;;;26.63;17.63;;;;;;;;;;4955395;28;20459;-89
2020/12/08 08:57:54;;;;;;;25.43;16.73;;;;;;;;;;4954808;29;20451;-89
2020/12/08 09:00:21;;;;;;;24.80;17.73;;;6.40;99.90;;;;;;4955138;29;20930;-89
2020/12/08 09:02:47;;;;;;;25.37;17.00;;;;;;;;;;4955143;29;20450;-88
2020/12/08 09:05:14;;;;;;;22.37;16.50;;;6.90;99.90;;;;;;4967531;28;20836;-89
2020/12/08 09:07:41;;;;;;;29.10;16.90;;;;;;;;;;4975351;28;20541;-88
2020/12/08 09:10:08;;;;;;;26.37;17.57;;;;;;;;;;4974666;28;20451;-86
2020/12/08 09:12:34;;;;;;;26.93;17.23;;;;;;;;;;4974183;28;20578;-89
2020/12/08 09:15:04;;;;;;;24.83;15.93;;;;;;;;;;4974042;28;20450;-87
2020/12/08 09:17:30;;;;;;;22.00;16.27;;;;;;;;;;4966974;28;20449;-89
2020/12/08 09:19:57;;;;;;;21.30;16.10;;;;;;;;;;4957629;28;20534;-86
2020/12/08 09:22:24;;;;;;;23.53;16.87;;;7.90;99.90;;;;;;4958379;28;20507;-89
2020/12/08 09:24:51;;;;;;;22.80;15.50;;;;;;;;;;4971496;28;20443;-88
2020/12/08 09:27:17;;;;;;;22.80;16.37;;;;;;;;;;4974431;28;20454;-92
2020/12/08 09:29:44;;;;;;;33.27;18.60;;;;;;;;;;4965656;28;20544;-85
2020/12/08 09:32:11;;;;;;;21.63;16.70;;;;;;;;;;4956618;28;20457;-87
2020/12/08 09:34:37;;;;;;;20.10;16.00;;;;;;;;;;4970184;28;20441;-83
2020/12/08 09:37:04;;;;;;;22.50;17.27;;;;;;;;;;4975886;28;20463;-87
2020/12/08 09:39:31;;;;;;;23.27;17.40;;;8.60;99.90;;;;;;4971657;28;20482;-87
2020/12/08 09:41:58;;;;;;;25.43;15.93;;;;;;;;;;4973641;28;20493;-87
2020/12/08 09:44:25;;;;;;;25.37;18.47;;;;;;;;;;4975556;28;20457;-86
2020/12/08 09:46:52;;;;;;;22.83;16.73;;;;;;;;;;4958423;29;20474;-89
2020/12/08 09:49:19;;;;;;;22.00;16.13;;;;;;;;;;4958119;28;20439;-87
2020/12/08 09:51:46;;;;;;;20.73;16.00;;;;;;;;;;4964398;28;20452;-89
2020/12/08 09:54:13;;;;;;;23.63;16.77;;;;;;;;;;4977073;28;20448;-88
2020/12/08 09:56:40;;;;;;;22.50;17.50;;;8.90;99.90;;;;;;4977194;28;20935;-87
2020/12/08 09:59:06;;;;;;;23.03;16.97;;;;;;;;;;4974776;28;20455;-88
2020/12/08 10:01:34;;;;;;;25.80;16.90;;;9.40;99.90;;;;;;4977241;28;20494;-88
2020/12/08 10:04:01;;;;;;;24.77;17.70;;;;;;;;;;4975962;28;20452;-89
2020/12/08 10:06:28;;;;;;;22.20;16.33;;;;;;;;;;4976162;28;20452;-88
2020/12/08 10:08:56;;;;;;;22.70;17.17;;;;;;;;;;4976987;28;20963;-88
2020/12/08 10:11:23;;;;;;;22.97;16.57;;;9.40;99.90;;;;;;4978317;28;20467;-88
2020/12/08 10:13:51;;;;;;;23.13;16.60;;;9.20;99.90;;;;;;4977181;28;20450;-89
2020/12/08 10:16:18;;;;;;;22.83;17.20;;;9.90;99.90;;;;;;4977171;28;20445;-90
2020/12/08 10:18:45;;;;;;;21.43;15.73;;;;;;;;;;4976955;28;20438;-88
2020/12/08 10:21:12;;;;;;;19.07;15.63;;;;;;;;;;4976013;28;20489;-90
2020/12/08 10:23:38;;;;;;;23.40;18.03;;;;;;;;;;4977109;28;20486;-91
2020/12/08 10:26:05;;;;;;;28.43;18.70;;;;;;;;;;4977136;28;20940;-87
2020/12/08 10:28:31;;;;;;;19.13;15.80;;;;;;;;;;4976634;28;20439;-87
2020/12/08 10:30:58;;;;;;;17.73;15.23;;;8.70;99.90;;;;;;4976641;28;20453;-87
2020/12/08 10:33:26;;;;;;;20.80;15.67;;;;;;;;;;4976617;28;20492;-87
2020/12/08 10:35:52;;;;;;;23.13;17.17;;;;;;;;;;4975549;28;20537;-87
2020/12/08 10:38:19;;;;;;;20.30;15.53;;;;;;;;;;4974187;28;20459;-87
2020/12/08 10:40:46;;;;;;;19.63;14.33;;;;;;;;;;4976203;28;21038;-88
2020/12/08 10:43:13;;;;;;;19.30;14.97;;;;;;;;;;4976954;28;20457;-88
2020/12/08 10:45:39;;;;;;;18.47;16.00;;;;;;;;;;4976841;28;20485;-88
2020/12/08 10:48:06;;;;;;;18.73;15.70;;;9.30;99.90;;;;;;4976919;28;20821;-90
2020/12/08 10:50:33;;;;;;;20.67;14.97;;;;;;;;;;4974066;28;20462;-87
2020/12/08 10:52:59;;;;;;;21.47;16.10;;;;;;;;;;4976173;28;20454;-89
2020/12/08 10:55:26;;;;;;;18.70;15.53;;;;;;;;;;4975603;28;20460;-87
2020/12/08 10:57:52;;;;;;;19.73;15.07;;;;;;;;;;4976304;28;20446;-88
2020/12/08 11:00:19;;;;;;;21.87;16.77;;;;;;;;;;4976240;28;20465;-87
2020/12/08 11:02:46;;;;;;;18.13;15.97;;;;;;;;;;4980440;28;20449;-88
2020/12/08 11:05:13;;;;;;;18.83;14.93;;;10.50;97.80;;;;;;4975052;28;20865;-87
2020/12/08 11:07:40;;;;;;;22.40;17.70;;;;;;;;;;4956188;29;20455;-88
2020/12/08 11:10:06;;;;;;;18.70;14.63;;;;;;;;;;4966272;28;20463;-89
2020/12/08 11:12:33;;;;;;;22.90;17.57;;;;;;;;;;4978298;28;20501;-90
2020/12/08 11:14:59;;;;;;;20.50;15.87;;;;;;;;;;4995849;28;20449;-88
2020/12/08 11:17:26;;;;;;;21.83;16.60;;;;;;;;;;4995841;28;20472;-89
2020/12/08 11:19:52;;;;;;;21.40;15.77;;;;;;;;;;4992958;28;20451;-90
2020/12/08 11:22:20;;;;;;;19.77;15.57;;;9.10;99.30;;;;;;4995362;28;20476;-91
2020/12/08 11:24:46;;;;;;;19.93;15.87;;;;;;;;;;4995395;28;20458;-91
2020/12/08 11:27:14;;;;;;;22.83;16.30;;;7.80;99.90;;;;;;4995683;28;20445;-90
2020/12/08 11:29:40;;;;;;;21.40;16.40;;;;;;;;;;4993037;28;20447;-90
2020/12/08 11:32:07;;;;;;;23.37;16.90;;;;;;;;;;4995434;28;20452;-91
2020/12/08 11:34:34;;;;;;;21.93;15.67;;;;;;;;;;4994755;28;20451;-91
2020/12/08 11:37:00;;;;;;;27.27;16.30;;;;;;;;;;4984659;28;20442;-90
2020/12/08 11:39:28;;;;;;;22.90;16.20;;;7.80;99.90;;;;;;4975777;28;20451;-90
2020/12/08 11:41:54;;;;;;;21.83;15.97;;;;;;;;;;4981792;28;20485;-91
2020/12/08 11:44:21;;;;;;;24.20;16.27;;;;;;;;;;4988647;28;20449;-89
2020/12/08 11:46:52;;;;;;;22.23;15.57;;;7.40;99.90;;;;;;4978433;28;20442;-92
2020/12/08 11:49:19;;;;;;;24.17;16.20;;;;;;;;;;4974577;28;20538;-89
2020/12/08 11:51:46;;;;;;;25.83;16.80;;;7.40;99.90;;;;;;4974505;28;20822;-90
2020/12/08 11:54:13;;;;;;;22.20;16.33;;;;;;;;;;4975570;28;20454;-91
2020/12/08 11:56:40;;;;;;;26.77;17.17;;;7.70;99.90;;;;;;4976771;28;20458;-89
2020/12/08 11:59:06;;;;;;;20.27;14.90;;;;;;;;;;4975626;28;20472;-91
2020/12/08 12:01:33;;;;;;;21.67;15.10;;;;;;;;;;4976229;28;20504;-90
2020/12/08 12:04:00;;;;;;;23.70;16.10;;;;;;;;;;4975048;28;20972;-88
2020/12/08 12:06:26;;;;;;;23.27;16.30;;;;;;;;;;4972973;28;20477;-89
2020/12/08 12:08:53;;;;;;;23.73;16.57;;;;;;;;;;4975610;28;20472;-89
2020/12/08 12:11:19;;;;;;;22.53;17.17;;;;;;;;;;4975252;28;20965;-89
2020/12/08 12:13:46;;;;;;;24.40;17.40;;;8.20;99.90;;;;;;4974962;28;20461;-88
2020/12/08 12:16:13;;;;;;;26.13;17.53;;;;;;;;;;4974791;28;20448;-90
2020/12/08 12:18:40;;;;;;;21.37;16.00;;;;;;;;;;4974886;28;20453;-88
2020/12/08 12:21:06;;;;;;;22.87;15.57;;;8.20;99.90;;;;;;4974080;28;20493;-88
2020/12/08 12:23:33;;;;;;;21.47;15.43;;;;;;;;;;4975351;28;20486;-91
2020/12/08 12:25:59;;;;;;;23.60;16.27;;;;;;;;;;4976676;28;20768;-89
2020/12/08 12:28:26;;;;;;;22.60;16.50;;;8.60;99.90;;;;;;4975717;28;20456;-89
2020/12/08 12:30:53;;;;;;;23.10;16.03;;;9.00;99.90;;;;;;4974781;28;20460;-91
2020/12/08 12:33:19;;;;;;;22.47;15.70;;;8.50;99.90;;;;;;4974882;28;20452;-92
2020/12/08 12:35:46;;;;;;;21.40;16.30;;;;;;;;;;4975733;28;20466;-94
2020/12/08 12:38:12;;;;;;;21.60;15.00;;;;;;;;;;4976567;28;20444;-89
2020/12/08 12:40:39;;;;;;;22.07;12.90;;;7.10;99.90;;;;;;4975521;28;20501;-90
2020/12/08 12:43:05;;;;;;;22.90;16.43;;;7.40;99.90;;;;;;4977018;28;20814;-90
2020/12/08 12:45:32;;;;;;;30.03;16.63;;;7.50;99.90;;;;;;4976319;28;20446;-90
2020/12/08 12:47:59;;;;;;;20.87;15.63;;;7.30;99.90;;;;;;4974695;28;20458;-90
2020/12/08 12:50:25;;;;;;;24.27;16.57;;;;;;;;;;4974340;28;20521;-90
2020/12/08 12:52:52;;;;;;;24.03;15.83;;;;;;;;;;4974517;28;20972;-89
2020/12/08 12:55:18;;;;;;;25.00;14.80;;;6.50;99.90;;;;;;4975083;28;20458;-89
2020/12/08 12:57:45;;;;;;;25.30;15.53;;;;;;;;;;4973652;28;20464;-89
2020/12/08 13:00:11;;;;;;;21.03;15.10;;;;;;;;;;4974908;28;20456;-91
2020/12/08 13:02:38;;;;;;;20.67;14.50;;;;;;;;;;4975406;28;20506;-89